Aérodrome :
LOGIN :

S'inscrire | Disclaimer

   EN    FR    IT 

 










Légende :    VFR   VFR Marginal   IFR   IFR Intensif   IFR Très Intensif
Visi : 
Plafond : 
>= 8 km
>= 3000ft
5 à 8 km
1000 à 3000 ft
1500m à 5 km
500 à 1000 ft
800 à 1500m
200 à 500 ft
< 800m
< 200 ft
Symboles :   Orages  Brouillard  Fortes neiges  Fortes précipitations  Vent > 20 kt
SIGMETs :   Divers  Orages  Givrage  Turbulence  Onde Orograph.  Cendres Volcan.






- Altitude de l'aérodrome : 13 ft
- Code IATA : LYX


EGMD - Lydd

DERNIER METAR :
  • 202250Z AUTO 24013KT 9999 BKN009/// BKN013/// 13/13 Q1021

METARs EXPIRÉS :
  • 202220Z AUTO 24013KT 9999 FEW008/// 14/13 Q1021
  • 202150Z AUTO 24015KT 9999 SCT008/// BKN013/// BKN018/// 13/12 Q1020
  • 202120Z AUTO 24016KT 9999 BKN010/// BKN018/// 13/12 Q1021
  • 202050Z AUTO 23016KT 9999 FEW010/// 13/12 Q1020
  • 202020Z AUTO 24016KT 9999 SCT010/// BKN015/// BKN027/// 13/12 Q1020

TAF TAF EGMD
Valide du 20 à 21h jusqu'au 21 à 06h UTC


201958Z 2021/2106 25011KT 9999 BKN011
BECMG 2021/2024 SCT045
PROB30
TEMPO 2021/2023 24015G26KT
ATIS : +44 1797 322 422



MET'MAP, la Météo Aéronautique d'un coup d'oeil ! - Copyright ORBIFLY Décembre 2007 - Disclaimer

ORBIFLY MET'MAP TEAM :

Programmation & Développement : Alexandra Zaïnal
Sur une idée originale de : Baudouin d'Aumeries
Soutien technique & logistique : Manuel Goepfert
Assistance : Marc-Olivier Méhu

Contact : metmap@orbifly.com




SOURCES & CREDITS :

   NOAA